createdAt,value
2019-05-28T00:03:12.094Z,17.40
2019-05-28T00:05:41.742Z,17.30
2019-05-28T00:08:11.431Z,17.30
2019-05-28T00:10:40.949Z,17.30
2019-05-28T00:13:10.556Z,17.20
2019-05-28T00:15:40.168Z,17.20
2019-05-28T00:18:09.976Z,17.20
2019-05-28T00:20:39.579Z,17.20
2019-05-28T00:23:09.085Z,17.20
2019-05-28T00:25:38.682Z,17.10
2019-05-28T00:30:38.441Z,17.30
2019-05-28T00:33:13.149Z,17.20
2019-05-28T00:36:38.248Z,17.30
2019-05-28T00:41:37.470Z,17.20
2019-05-28T00:44:07.172Z,17.20
2019-05-28T00:46:36.674Z,17.20
2019-05-28T00:49:06.282Z,17.10
2019-05-28T00:51:35.971Z,17.10
2019-05-28T00:56:34.795Z,17.10
2019-05-28T00:59:04.298Z,17.20
2019-05-28T01:01:34.007Z,17.00
2019-05-28T01:04:08.542Z,17.10
2019-05-28T19:19:29.105Z,15.30
2019-05-28T19:21:58.565Z,15.70
2019-05-28T19:24:27.966Z,15.80
2019-05-28T19:26:57.522Z,16.00
2019-05-28T19:29:26.872Z,16.10
2019-05-28T19:31:58.331Z,16.20
2019-05-28T19:34:30.006Z,16.50
2019-05-28T19:39:29.637Z,16.50
2019-05-28T19:41:58.999Z,16.70
2019-05-28T19:44:28.327Z,16.70
2019-05-28T19:46:57.671Z,16.70
2019-05-28T19:51:57.539Z,16.90
2019-05-28T19:54:28.030Z,16.90
2019-05-28T19:56:57.459Z,17.00
2019-05-28T19:59:26.827Z,16.90
2019-05-28T20:01:56.565Z,17.10
2019-05-28T20:04:26.084Z,17.20
2019-05-28T20:06:55.474Z,17.20
2019-05-28T20:09:24.989Z,17.30
2019-05-28T20:12:11.120Z,17.20
2019-05-28T20:14:27.752Z,17.20
2019-05-28T20:16:57.408Z,17.20
2019-05-28T20:19:27.089Z,17.30
2019-05-28T20:21:56.917Z,17.30
2019-05-28T20:24:26.281Z,17.30
2019-05-28T20:26:55.975Z,17.30
2019-05-28T20:29:25.364Z,17.30
2019-05-28T20:31:54.928Z,17.30
2019-05-28T20:34:24.337Z,17.30
2019-05-28T20:36:55.362Z,17.30
2019-05-28T20:39:26.317Z,17.40
2019-05-28T20:41:55.701Z,17.40
2019-05-28T20:44:25.013Z,17.40
2019-05-28T20:46:54.495Z,17.40
2019-05-28T20:49:24.316Z,17.40
2019-05-28T20:51:53.820Z,17.40
2019-05-28T20:54:23.328Z,17.50
2019-05-28T20:56:54.293Z,17.50
2019-05-28T21:01:54.128Z,17.50
2019-05-28T21:04:23.698Z,17.50
2019-05-28T21:09:13.026Z,17.40
2019-05-28T21:14:11.473Z,17.60
2019-05-28T21:16:40.875Z,17.50
2019-05-28T21:19:10.288Z,17.40
2019-05-28T21:21:39.677Z,17.30
2019-05-28T21:24:09.190Z,17.40
2019-05-28T21:26:38.796Z,17.30
2019-05-28T21:29:08.191Z,17.20
2019-05-28T21:31:37.704Z,17.40
2019-05-28T21:34:07.197Z,17.40
2019-05-28T21:36:36.710Z,17.30
2019-05-28T21:39:07.518Z,17.20
2019-05-28T21:41:36.942Z,17.20
2019-05-28T21:44:06.592Z,17.30
2019-05-28T21:46:35.970Z,17.30
2019-05-28T21:51:34.366Z,17.20
2019-05-28T21:54:03.813Z,17.30
2019-05-28T21:56:33.459Z,17.30
2019-05-28T21:59:03.790Z,17.20
2019-05-28T22:06:33.014Z,17.20
2019-05-28T22:09:02.507Z,17.20
2019-05-28T22:11:33.426Z,17.10
2019-05-28T22:16:32.250Z,17.20
2019-05-28T22:19:02.728Z,17.20
2019-05-28T22:21:32.395Z,17.20
2019-05-28T22:24:02.674Z,17.10
2019-05-28T22:29:01.644Z,17.10
2019-05-28T22:31:33.676Z,17.20
2019-05-28T22:34:03.174Z,17.20
2019-05-28T22:36:32.700Z,17.20
2019-05-28T22:41:40.915Z,17.30
2019-05-28T22:45:12.643Z,17.30
2019-05-28T22:47:42.175Z,17.30
2019-05-28T22:50:21.683Z,17.20
2019-05-28T22:55:44.334Z,17.30
2019-05-28T22:58:13.839Z,17.30
2019-05-28T23:00:43.300Z,17.30
2019-05-28T23:03:12.684Z,17.30
2019-05-28T23:05:42.190Z,17.30
2019-05-28T23:08:11.564Z,17.20
2019-05-28T23:10:41.132Z,17.10
2019-05-28T23:13:11.214Z,17.10
2019-05-28T23:15:40.823Z,17.20
2019-05-28T23:18:11.018Z,17.30
2019-05-28T23:20:40.508Z,17.30
2019-05-28T23:23:11.344Z,17.30
2019-05-28T23:25:40.874Z,17.40
2019-05-28T23:28:10.239Z,17.40
2019-05-28T23:30:39.582Z,17.40
2019-05-28T23:33:10.499Z,17.50
2019-05-28T23:35:39.996Z,17.50
2019-05-28T23:38:09.445Z,17.50
2019-05-28T23:40:38.799Z,17.60
2019-05-28T23:43:08.155Z,17.50
2019-05-28T23:45:37.502Z,17.50
2019-05-28T23:48:13.288Z,17.50
2019-05-28T23:50:38.979Z,17.60
2019-05-28T23:53:09.563Z,17.50
2019-05-28T23:55:39.054Z,17.70
2019-05-28T23:58:08.423Z,17.60
